createdAt,value
2017-12-05T00:00:53.600Z,0
2017-12-05T00:01:53.362Z,0
2017-12-05T00:02:53.625Z,0
2017-12-05T00:03:53.634Z,0
2017-12-05T00:04:53.650Z,0
2017-12-05T00:05:53.662Z,0
2017-12-05T00:06:52.924Z,0
2017-12-05T00:07:53.697Z,0
2017-12-05T00:08:53.455Z,0
2017-12-05T00:09:53.718Z,0
2017-12-05T00:10:53.277Z,0
2017-12-05T00:11:53.747Z,0
2017-12-05T00:12:53.248Z,0
2017-12-05T00:13:53.271Z,0
2017-12-05T00:14:53.030Z,0
2017-12-05T00:15:53.801Z,0
2017-12-05T00:16:53.805Z,0
2017-12-05T00:17:53.313Z,0
2017-12-05T00:18:53.841Z,0
2017-12-05T00:19:53.595Z,0
2017-12-05T00:20:53.869Z,0
2017-12-05T00:21:53.875Z,0
2017-12-05T00:22:53.884Z,0
2017-12-05T00:23:53.643Z,0
2017-12-05T00:24:53.661Z,0
2017-12-05T00:25:53.463Z,0
2017-12-05T00:26:53.985Z,0
2017-12-05T00:27:53.959Z,0
2017-12-05T00:28:53.463Z,0
2017-12-05T00:29:53.977Z,0
2017-12-05T00:30:53.740Z,0
2017-12-05T00:31:53.748Z,0
2017-12-05T00:32:53.781Z,0
2017-12-05T00:33:54.025Z,0
2017-12-05T00:34:53.542Z,0
2017-12-05T00:35:54.045Z,0
2017-12-05T00:36:53.813Z,0
2017-12-05T00:37:54.104Z,0
2017-12-05T00:38:54.090Z,0
2017-12-05T00:39:53.593Z,0
2017-12-05T00:40:53.656Z,0
2017-12-05T00:41:53.876Z,0
2017-12-05T00:42:53.388Z,0
2017-12-05T00:43:53.905Z,0
2017-12-05T00:44:54.168Z,0
2017-12-05T00:45:53.924Z,0
2017-12-05T00:46:53.935Z,0
2017-12-05T00:47:53.946Z,0
2017-12-05T00:48:53.963Z,0
2017-12-05T00:49:53.983Z,0
2017-12-05T00:50:53.989Z,0
2017-12-05T00:51:54.283Z,0
2017-12-05T00:52:54.124Z,0
2017-12-05T00:53:54.023Z,0
2017-12-05T00:54:54.290Z,0
2017-12-05T00:55:54.101Z,0
2017-12-05T00:56:54.319Z,0
2017-12-05T00:57:54.328Z,0
2017-12-05T00:58:54.352Z,0
2017-12-05T00:59:53.851Z,0
2017-12-05T01:00:53.871Z,0
2017-12-05T01:01:54.126Z,0
2017-12-05T01:02:53.909Z,0
2017-12-05T01:03:54.163Z,0
2017-12-05T01:04:54.165Z,0
2017-12-05T01:05:54.435Z,0
2017-12-05T01:06:54.451Z,0
2017-12-05T01:07:54.206Z,0
2017-12-05T01:08:54.470Z,0
2017-12-05T01:09:53.727Z,0
2017-12-05T01:10:54.595Z,0
2017-12-05T01:11:54.507Z,0
2017-12-05T01:12:54.267Z,0
2017-12-05T01:13:54.531Z,0
2017-12-05T01:14:54.295Z,0
2017-12-05T01:15:54.317Z,0
2017-12-05T01:16:54.319Z,0
2017-12-05T01:17:53.852Z,0
2017-12-05T01:18:53.840Z,0
2017-12-05T01:19:54.605Z,0
2017-12-05T01:20:54.620Z,0
2017-12-05T01:21:54.385Z,0
2017-12-05T01:22:54.451Z,0
2017-12-05T01:23:54.666Z,0
2017-12-05T01:24:54.421Z,0
2017-12-05T01:25:54.231Z,0
2017-12-05T01:26:54.694Z,0
2017-12-05T01:27:54.905Z,0
2017-12-05T01:28:54.464Z,0
2017-12-05T01:29:54.731Z,0
2017-12-05T01:30:54.765Z,0
2017-12-05T01:31:54.758Z,0
2017-12-05T01:32:54.770Z,0
2017-12-05T01:33:54.279Z,0
2017-12-05T01:34:54.544Z,0
2017-12-05T01:35:54.559Z,0
2017-12-05T01:36:54.820Z,0
2017-12-05T01:37:54.874Z,0
2017-12-05T01:38:54.591Z,0
2017-12-05T01:39:54.863Z,0
2017-12-05T01:40:54.924Z,0
2017-12-05T01:41:54.648Z,0
2017-12-05T01:42:54.395Z,0
2017-12-05T01:43:54.657Z,0
2017-12-05T01:44:54.674Z,0
2017-12-05T01:45:54.941Z,0
2017-12-05T01:46:54.707Z,0
2017-12-05T01:47:54.457Z,0
2017-12-05T01:48:54.472Z,0
2017-12-05T01:49:54.732Z,0
2017-12-05T01:50:55.002Z,0
2017-12-05T01:51:55.012Z,0
2017-12-05T01:52:55.029Z,0
2017-12-05T01:53:54.534Z,0
2017-12-05T01:54:54.796Z,0
2017-12-05T01:55:54.812Z,0
2017-12-05T01:56:54.620Z,0
2017-12-05T01:57:54.593Z,0
2017-12-05T01:58:54.595Z,0
2017-12-05T01:59:54.610Z,0
2017-12-05T02:00:54.873Z,0
2017-12-05T02:01:54.900Z,0
2017-12-05T02:02:55.148Z,0
2017-12-05T02:03:55.162Z,0
2017-12-05T02:04:54.668Z,0
2017-12-05T02:05:54.953Z,0
2017-12-05T02:06:55.207Z,0
2017-12-05T02:07:54.969Z,0
2017-12-05T02:08:55.233Z,0
2017-12-05T02:09:54.983Z,0
2017-12-05T02:10:54.490Z,0
2017-12-05T02:11:54.810Z,0
2017-12-05T02:12:55.020Z,0
2017-12-05T02:13:55.292Z,0
2017-12-05T02:14:55.299Z,0
2017-12-05T02:15:55.058Z,0
2017-12-05T02:16:55.185Z,0
2017-12-05T02:17:55.339Z,0
2017-12-05T02:18:55.354Z,0
2017-12-05T02:19:54.858Z,0
2017-12-05T02:20:55.379Z,0
2017-12-05T02:21:55.388Z,0
2017-12-05T02:22:54.889Z,0
2017-12-05T02:23:55.417Z,0
2017-12-05T02:24:54.915Z,0
2017-12-05T02:25:54.676Z,0
2017-12-05T02:26:55.238Z,0
2017-12-05T02:27:54.955Z,0
2017-12-05T02:28:55.222Z,0
2017-12-05T02:29:55.230Z,0
2017-12-05T02:30:55.250Z,0
2017-12-05T02:31:55.271Z,0
2017-12-05T02:32:55.266Z,0
2017-12-05T02:33:54.776Z,0
2017-12-05T02:34:55.296Z,0
2017-12-05T02:35:55.080Z,0
2017-12-05T02:36:55.581Z,0
2017-12-05T02:37:55.332Z,0
2017-12-05T02:38:55.615Z,0
2017-12-05T02:39:54.854Z,0
2017-12-05T02:40:55.384Z,0
2017-12-05T02:41:55.435Z,0
2017-12-05T02:42:55.391Z,0
2017-12-05T02:43:55.662Z,0
2017-12-05T02:44:54.917Z,0
2017-12-05T02:45:55.698Z,0
2017-12-05T02:46:55.196Z,0
2017-12-05T02:47:55.708Z,0
2017-12-05T02:48:55.729Z,0
2017-12-05T02:49:55.481Z,0
2017-12-05T02:50:55.553Z,0
2017-12-05T02:51:55.755Z,0
2017-12-05T02:52:55.773Z,0
2017-12-05T02:53:55.533Z,0
2017-12-05T02:54:55.296Z,0
2017-12-05T02:55:55.316Z,0
2017-12-05T02:56:55.627Z,0
2017-12-05T02:57:55.589Z,0
2017-12-05T02:58:55.843Z,0
2017-12-05T02:59:55.602Z,0
2017-12-05T03:00:55.890Z,0
2017-12-05T03:01:55.885Z,0
2017-12-05T03:02:55.905Z,0
2017-12-05T03:03:55.654Z,0
2017-12-05T03:04:55.915Z,0
2017-12-05T03:05:55.972Z,0
2017-12-05T03:06:55.941Z,0
2017-12-05T03:07:55.450Z,0
2017-12-05T03:08:55.221Z,0
2017-12-05T03:09:55.726Z,0
2017-12-05T03:10:55.486Z,0
2017-12-05T03:11:56.055Z,0
2017-12-05T03:12:55.512Z,0
2017-12-05T03:13:55.778Z,0
2017-12-05T03:14:55.788Z,0
2017-12-05T03:15:56.054Z,0
2017-12-05T03:16:55.561Z,0
2017-12-05T03:17:55.575Z,0
2017-12-05T03:18:56.093Z,0
2017-12-05T03:19:55.861Z,0
2017-12-05T03:20:56.131Z,0
2017-12-05T03:21:56.144Z,0
2017-12-05T03:22:56.148Z,0
2017-12-05T03:23:55.905Z,0
2017-12-05T03:24:55.682Z,0
2017-12-05T03:25:55.930Z,0
2017-12-05T03:26:55.995Z,0
2017-12-05T03:27:55.450Z,0
2017-12-05T03:28:55.464Z,0
2017-12-05T03:29:56.237Z,0
2017-12-05T03:30:56.019Z,0
2017-12-05T03:31:56.006Z,0
2017-12-05T03:32:56.273Z,0
2017-12-05T03:33:55.778Z,0
2017-12-05T03:34:56.298Z,0
2017-12-05T03:35:56.061Z,0
2017-12-05T03:36:56.319Z,0
2017-12-05T03:37:56.329Z,0
2017-12-05T03:38:56.091Z,0
2017-12-05T03:39:56.365Z,0
2017-12-05T03:40:56.398Z,0
2017-12-05T03:41:56.431Z,0
2017-12-05T03:42:56.156Z,0
2017-12-05T03:43:56.441Z,0
2017-12-05T03:44:56.173Z,0
2017-12-05T03:45:56.440Z,0
2017-12-05T03:46:56.193Z,0
2017-12-05T03:47:56.207Z,0
2017-12-05T03:48:56.470Z,0
2017-12-05T03:49:56.238Z,0
2017-12-05T03:50:56.564Z,0
2017-12-05T03:51:56.256Z,0
2017-12-05T03:52:56.019Z,0
2017-12-05T03:53:56.029Z,0
2017-12-05T03:54:56.553Z,0
2017-12-05T03:55:55.815Z,0
2017-12-05T03:56:56.623Z,0
2017-12-05T03:57:56.588Z,0
2017-12-05T03:58:56.351Z,0
2017-12-05T03:59:56.614Z,0
2017-12-05T04:00:56.129Z,0
2017-12-05T04:01:56.651Z,0
2017-12-05T04:02:56.654Z,0
2017-12-05T04:03:56.658Z,0
2017-12-05T04:04:56.441Z,0
2017-12-05T04:05:56.183Z,0
2017-12-05T04:06:56.198Z,0
2017-12-05T04:07:56.460Z,0
2017-12-05T04:08:56.730Z,0
2017-12-05T04:09:56.758Z,0
2017-12-05T04:10:56.499Z,0
2017-12-05T04:11:56.662Z,0
2017-12-05T04:12:56.276Z,0
2017-12-05T04:13:56.541Z,0
2017-12-05T04:14:56.809Z,0
2017-12-05T04:15:56.817Z,0
2017-12-05T04:16:56.839Z,0
2017-12-05T04:17:56.844Z,0
2017-12-05T04:18:56.870Z,0
2017-12-05T04:19:56.625Z,0
2017-12-05T04:20:56.630Z,0
2017-12-05T04:21:56.393Z,0
2017-12-05T04:22:56.659Z,0
2017-12-05T04:23:56.690Z,0
2017-12-05T04:24:56.688Z,0
2017-12-05T04:25:56.957Z,0
2017-12-05T04:26:56.512Z,0
2017-12-05T04:27:56.722Z,0
2017-12-05T04:28:56.740Z,0
2017-12-05T04:29:57.003Z,0
2017-12-05T04:30:57.021Z,0
2017-12-05T04:31:56.777Z,0
2017-12-05T04:32:56.787Z,0
2017-12-05T04:33:56.550Z,0
2017-12-05T04:34:56.811Z,0
2017-12-05T04:35:56.572Z,0
2017-12-05T04:36:56.840Z,0
2017-12-05T04:37:57.104Z,0
2017-12-05T04:38:57.115Z,0
2017-12-05T04:39:57.141Z,0
2017-12-05T04:40:57.143Z,0
2017-12-05T04:41:57.208Z,0
2017-12-05T04:42:56.918Z,0
2017-12-05T04:43:57.185Z,0
2017-12-05T04:44:57.199Z,0
2017-12-05T04:45:56.957Z,0
2017-12-05T04:46:56.978Z,0
2017-12-05T04:47:56.992Z,0
2017-12-05T04:48:57.247Z,0
2017-12-05T04:49:57.263Z,0
2017-12-05T04:50:56.767Z,0
2017-12-05T04:51:57.033Z,0
2017-12-05T04:52:57.353Z,0
2017-12-05T04:53:57.061Z,0
2017-12-05T04:54:56.824Z,0
2017-12-05T04:55:57.347Z,0
2017-12-05T04:56:57.402Z,0
2017-12-05T04:57:57.369Z,0
2017-12-05T04:58:57.125Z,0
2017-12-05T04:59:57.168Z,0
2017-12-05T05:00:57.176Z,0
2017-12-05T05:01:56.916Z,0
2017-12-05T05:02:57.182Z,0
2017-12-05T05:03:56.937Z,0
2017-12-05T05:04:57.476Z,0
2017-12-05T05:05:57.223Z,0
2017-12-05T05:06:57.251Z,0
2017-12-05T05:07:57.246Z,0
2017-12-05T05:08:57.512Z,0
2017-12-05T05:09:57.267Z,0
2017-12-05T05:10:57.288Z,0
2017-12-05T05:11:57.600Z,0
2017-12-05T05:12:57.558Z,0
2017-12-05T05:13:56.817Z,0
2017-12-05T05:14:57.590Z,0
2017-12-05T05:15:57.349Z,0
2017-12-05T05:16:57.629Z,0
2017-12-05T05:17:57.375Z,0
2017-12-05T05:18:57.386Z,0
2017-12-05T05:19:57.655Z,0
2017-12-05T05:20:57.415Z,0
2017-12-05T05:21:57.675Z,0
2017-12-05T05:22:57.184Z,0
2017-12-05T05:23:57.454Z,0
2017-12-05T05:24:57.211Z,0
2017-12-05T05:25:57.482Z,0
2017-12-05T05:26:57.540Z,0
2017-12-05T05:27:57.509Z,0
2017-12-05T05:28:57.515Z,0
2017-12-05T05:29:57.280Z,0
2017-12-05T05:30:57.541Z,0
2017-12-05T05:31:57.805Z,0
2017-12-05T05:32:57.821Z,0
2017-12-05T05:33:57.580Z,0
2017-12-05T05:34:57.624Z,0
2017-12-05T05:35:57.867Z,0
2017-12-05T05:36:57.466Z,0
2017-12-05T05:37:57.379Z,0
2017-12-05T05:38:57.406Z,0
2017-12-05T05:39:57.660Z,0
2017-12-05T05:40:57.417Z,0
2017-12-05T05:41:57.833Z,0
2017-12-05T05:42:57.947Z,0
2017-12-05T05:43:57.966Z,0
2017-12-05T05:44:57.730Z,0
2017-12-05T05:45:58.202Z,0
2017-12-05T05:46:57.750Z,0
2017-12-05T05:47:58.028Z,0
2017-12-05T05:48:57.533Z,0
2017-12-05T05:49:57.292Z,0
2017-12-05T05:50:57.806Z,0
2017-12-05T05:51:58.022Z,0
2017-12-05T05:52:57.580Z,0
2017-12-05T05:53:58.099Z,0
2017-12-05T05:54:57.857Z,0
2017-12-05T05:55:57.868Z,0
2017-12-05T05:56:58.139Z,0
2017-12-05T05:57:58.212Z,0
2017-12-05T05:58:57.660Z,0
2017-12-05T05:59:57.924Z,0
2017-12-05T06:00:57.435Z,0
2017-12-05T06:01:57.755Z,0
2017-12-05T06:02:57.971Z,0
2017-12-05T06:03:58.228Z,0
2017-12-05T06:04:58.002Z,0
2017-12-05T06:05:58.003Z,0
2017-12-05T06:06:57.765Z,0
2017-12-05T06:07:58.278Z,0
2017-12-05T06:08:58.300Z,0
2017-12-05T06:09:57.802Z,0
2017-12-05T06:10:58.321Z,0
2017-12-05T06:11:57.831Z,0
2017-12-05T06:12:58.515Z,0
2017-12-05T06:13:58.111Z,0
2017-12-05T06:14:58.378Z,0
2017-12-05T06:15:58.391Z,0
2017-12-05T06:16:57.647Z,0
2017-12-05T06:17:58.414Z,0
2017-12-05T06:18:57.930Z,0
2017-12-05T06:19:58.239Z,0
2017-12-05T06:20:58.460Z,0
2017-12-05T06:21:58.472Z,0
2017-12-05T06:22:57.974Z,0
2017-12-05T06:23:58.245Z,0
2017-12-05T06:24:58.249Z,0
2017-12-05T06:25:58.543Z,0
2017-12-05T06:26:58.278Z,0
2017-12-05T06:27:58.595Z,0
2017-12-05T06:28:58.306Z,0
2017-12-05T06:29:58.572Z,0
2017-12-05T06:30:58.086Z,0
2017-12-05T06:31:58.100Z,0
2017-12-05T06:32:58.616Z,0
2017-12-05T06:33:58.411Z,0
2017-12-05T06:34:58.388Z,0
2017-12-05T06:35:58.656Z,0
2017-12-05T06:36:58.415Z,0
2017-12-05T06:37:58.177Z,0
2017-12-05T06:38:58.203Z,0
2017-12-05T06:39:58.204Z,0
2017-12-05T06:40:58.727Z,0
2017-12-05T06:41:58.490Z,0
2017-12-05T06:42:58.542Z,0
2017-12-05T06:43:58.763Z,0
2017-12-05T06:44:58.523Z,0
2017-12-05T06:45:58.281Z,0
2017-12-05T06:46:58.549Z,0
2017-12-05T06:47:58.310Z,0
2017-12-05T06:48:58.578Z,0
2017-12-05T06:49:58.852Z,0
2017-12-05T06:50:58.604Z,0
2017-12-05T06:51:58.872Z,0
2017-12-05T06:52:58.934Z,0
2017-12-05T06:53:58.646Z,0
2017-12-05T06:54:58.914Z,0
2017-12-05T06:55:58.922Z,0
2017-12-05T06:56:58.938Z,0
2017-12-05T06:57:58.746Z,5
2017-12-05T06:58:58.461Z,5
2017-12-05T06:59:58.976Z,5
2017-12-05T07:00:58.486Z,5
2017-12-05T07:01:58.765Z,5
2017-12-05T07:02:58.770Z,5
2017-12-05T07:03:59.030Z,5
2017-12-05T07:04:59.044Z,5
2017-12-05T07:05:59.059Z,5
2017-12-05T07:06:59.070Z,5
2017-12-05T07:07:59.097Z,5
2017-12-05T07:08:58.846Z,5
2017-12-05T07:09:58.863Z,10
2017-12-05T07:10:58.884Z,10
2017-12-05T07:11:58.888Z,10
2017-12-05T07:12:58.948Z,10
2017-12-05T07:13:58.960Z,10
2017-12-05T07:14:58.933Z,10
2017-12-05T07:15:58.684Z,10
2017-12-05T07:16:59.206Z,10
2017-12-05T07:17:58.965Z,15
2017-12-05T07:18:59.001Z,15
2017-12-05T07:19:58.484Z,15
2017-12-05T07:20:58.756Z,15
2017-12-05T07:21:59.270Z,15
2017-12-05T07:22:58.273Z,20
2017-12-05T07:23:58.805Z,20
2017-12-05T07:24:59.054Z,20
2017-12-05T07:25:59.331Z,20
2017-12-05T07:26:59.088Z,25
2017-12-05T07:27:59.151Z,25
2017-12-05T07:28:59.114Z,25
2017-12-05T07:29:59.127Z,25
2017-12-05T07:30:58.888Z,25
2017-12-05T07:31:59.151Z,25
2017-12-05T07:32:59.177Z,30
2017-12-05T07:33:59.494Z,30
2017-12-05T07:34:58.997Z,30
2017-12-05T07:35:58.953Z,35
2017-12-05T07:36:58.974Z,35
2017-12-05T07:37:59.007Z,40
2017-12-05T07:38:59.250Z,40
2017-12-05T07:39:59.261Z,40
2017-12-05T07:40:59.021Z,45
2017-12-05T07:41:59.297Z,45
2017-12-05T07:42:59.601Z,45
2017-12-05T07:43:59.571Z,45
2017-12-05T07:44:59.083Z,50
2017-12-05T07:45:59.088Z,50
2017-12-05T07:46:59.603Z,55
2017-12-05T07:47:59.622Z,60
2017-12-05T07:48:59.379Z,60
2017-12-05T07:49:59.384Z,65
2017-12-05T07:50:59.424Z,70
2017-12-05T07:51:59.417Z,70
2017-12-05T07:52:58.929Z,70
2017-12-05T07:53:59.702Z,75
2017-12-05T07:54:59.461Z,80
2017-12-05T07:55:59.724Z,80
2017-12-05T07:56:59.482Z,85
2017-12-05T07:57:59.558Z,90
2017-12-05T07:58:59.263Z,90
2017-12-05T07:59:59.547Z,95
2017-12-05T08:00:59.792Z,95
2017-12-05T08:01:59.312Z,100
2017-12-05T08:02:59.872Z,105
2017-12-05T08:03:59.864Z,105
2017-12-05T08:04:59.842Z,105
2017-12-05T08:05:59.867Z,105
2017-12-05T08:06:59.627Z,100
2017-12-05T08:07:59.637Z,100
2017-12-05T08:08:59.399Z,100
2017-12-05T08:09:59.917Z,100
2017-12-05T08:10:59.431Z,95
2017-12-05T08:11:59.698Z,90
2017-12-05T08:12:59.778Z,85
2017-12-05T08:13:59.748Z,80
2017-12-05T08:14:59.498Z,80
2017-12-05T08:15:59.788Z,80
2017-12-05T08:16:59.775Z,80
2017-12-05T08:18:00.033Z,80
2017-12-05T08:18:59.789Z,80
2017-12-05T08:19:59.559Z,80
2017-12-05T08:20:59.826Z,85
2017-12-05T08:21:59.839Z,90
2017-12-05T08:23:00.102Z,90
2017-12-05T08:23:59.866Z,95
2017-12-05T08:24:59.879Z,95
2017-12-05T08:25:59.410Z,95
2017-12-05T08:26:59.912Z,100
2017-12-05T08:27:59.971Z,100
2017-12-05T08:29:00.188Z,100
2017-12-05T08:30:00.203Z,105
2017-12-05T08:30:59.976Z,105
2017-12-05T08:31:59.722Z,105
2017-12-05T08:32:59.992Z,105
2017-12-05T08:34:00.141Z,100
2017-12-05T08:35:00.279Z,95
2017-12-05T08:36:00.037Z,95
2017-12-05T08:37:00.046Z,90
2017-12-05T08:38:00.061Z,85
2017-12-05T08:39:00.092Z,85
2017-12-05T08:40:00.090Z,85
2017-12-05T08:40:59.855Z,85
2017-12-05T08:42:00.121Z,95
2017-12-05T08:43:00.436Z,100
2017-12-05T08:44:00.156Z,105
2017-12-05T08:45:00.423Z,110
2017-12-05T08:46:00.175Z,110
2017-12-05T08:47:00.451Z,110
2017-12-05T08:48:00.209Z,110
2017-12-05T08:48:59.968Z,110
2017-12-05T08:50:00.490Z,115
2017-12-05T08:51:00.516Z,110
2017-12-05T08:52:00.508Z,110
2017-12-05T08:53:00.526Z,110
2017-12-05T08:54:00.559Z,110
2017-12-05T08:54:59.802Z,110
2017-12-05T08:56:00.333Z,110
2017-12-05T08:57:00.073Z,110
2017-12-05T08:58:00.143Z,115
2017-12-05T08:59:00.359Z,115
2017-12-05T09:00:00.390Z,120
2017-12-05T09:01:00.143Z,120
2017-12-05T09:02:00.409Z,120
2017-12-05T09:03:00.670Z,120
2017-12-05T09:04:00.689Z,125
2017-12-05T09:05:00.445Z,130
2017-12-05T09:06:00.778Z,130
2017-12-05T09:07:00.728Z,135
2017-12-05T09:08:00.735Z,140
2017-12-05T09:09:00.509Z,140
2017-12-05T09:10:00.516Z,145
2017-12-05T09:11:00.527Z,150
2017-12-05T09:12:00.552Z,155
2017-12-05T09:13:00.617Z,165
2017-12-05T09:14:00.062Z,170
2017-12-05T09:15:00.589Z,175
2017-12-05T09:16:00.093Z,180
2017-12-05T09:17:00.879Z,185
2017-12-05T09:18:00.893Z,190
2017-12-05T09:19:00.897Z,200
2017-12-05T09:20:00.912Z,205
2017-12-05T09:21:00.936Z,210
2017-12-05T09:22:00.946Z,215
2017-12-05T09:23:00.698Z,220
2017-12-05T09:24:00.461Z,220
2017-12-05T09:25:00.748Z,225
2017-12-05T09:26:01.002Z,225
2017-12-05T09:27:00.762Z,215
2017-12-05T09:28:01.082Z,215
2017-12-05T09:29:00.786Z,210
2017-12-05T09:30:00.799Z,215
2017-12-05T09:31:00.824Z,205
2017-12-05T09:32:00.829Z,205
2017-12-05T09:33:01.095Z,195
2017-12-05T09:34:00.929Z,195
2017-12-05T09:35:00.629Z,195
2017-12-05T09:36:00.888Z,195
2017-12-05T09:37:01.159Z,195
2017-12-05T09:38:00.918Z,195
2017-12-05T09:39:00.680Z,190
2017-12-05T09:40:01.010Z,190
2017-12-05T09:41:00.713Z,190
2017-12-05T09:42:00.728Z,190
2017-12-05T09:43:00.995Z,195
2017-12-05T09:44:00.764Z,200
2017-12-05T09:45:01.179Z,205
2017-12-05T09:46:01.065Z,215
2017-12-05T09:47:01.060Z,225
2017-12-05T09:48:00.827Z,235
2017-12-05T09:49:01.088Z,240
2017-12-05T09:50:01.351Z,245
2017-12-05T09:51:01.131Z,245
2017-12-05T09:52:00.963Z,240
2017-12-05T09:53:01.408Z,230
2017-12-05T09:54:01.442Z,215
2017-12-05T09:55:01.187Z,205
2017-12-05T09:56:01.192Z,190
2017-12-05T09:57:00.950Z,185
2017-12-05T09:58:00.975Z,175
2017-12-05T09:59:01.236Z,170
2017-12-05T10:00:01.305Z,165
2017-12-05T10:01:01.267Z,155
2017-12-05T10:02:01.390Z,145
2017-12-05T10:03:01.556Z,140
2017-12-05T10:04:01.059Z,135
2017-12-05T10:05:01.586Z,130
2017-12-05T10:06:01.342Z,130
2017-12-05T10:07:01.610Z,130
2017-12-05T10:08:01.380Z,135
2017-12-05T10:09:01.386Z,135
2017-12-05T10:10:01.168Z,135
2017-12-05T10:11:01.167Z,135
2017-12-05T10:12:01.440Z,135
2017-12-05T10:13:01.452Z,140
2017-12-05T10:14:01.467Z,140
2017-12-05T10:15:01.286Z,145
2017-12-05T10:16:01.494Z,140
2017-12-05T10:17:01.252Z,145
2017-12-05T10:18:01.523Z,140
2017-12-05T10:19:01.788Z,140
2017-12-05T10:20:01.552Z,140
2017-12-05T10:21:01.824Z,135
2017-12-05T10:22:01.340Z,135
2017-12-05T10:23:01.347Z,135
2017-12-05T10:24:01.679Z,135
2017-12-05T10:25:01.376Z,140
2017-12-05T10:26:01.389Z,140
2017-12-05T10:27:01.660Z,140
2017-12-05T10:28:01.165Z,140
2017-12-05T10:29:01.183Z,140
2017-12-05T10:30:01.752Z,140
2017-12-05T10:31:01.215Z,140
2017-12-05T10:32:01.737Z,140
2017-12-05T10:33:01.769Z,140
2017-12-05T10:34:02.020Z,145
2017-12-05T10:35:01.775Z,145
2017-12-05T10:36:01.571Z,145
2017-12-05T10:37:02.066Z,150
2017-12-05T10:38:02.085Z,155
2017-12-05T10:39:01.858Z,165
2017-12-05T10:40:01.856Z,170
2017-12-05T10:41:02.123Z,175
2017-12-05T10:42:01.882Z,185
2017-12-05T10:43:02.197Z,185
2017-12-05T10:44:01.921Z,190
2017-12-05T10:45:01.729Z,195
2017-12-05T10:46:01.950Z,200
2017-12-05T10:47:01.707Z,205
2017-12-05T10:48:01.981Z,210
2017-12-05T10:49:02.253Z,220
2017-12-05T10:50:02.057Z,235
2017-12-05T10:51:02.273Z,245
2017-12-05T10:52:01.788Z,255
2017-12-05T10:53:02.301Z,265
2017-12-05T10:54:02.323Z,270
2017-12-05T10:55:02.437Z,275
2017-12-05T10:56:02.099Z,275
2017-12-05T10:57:01.864Z,285
2017-12-05T10:58:01.622Z,290
2017-12-05T10:59:02.222Z,300
2017-12-05T11:00:02.062Z,305
2017-12-05T11:01:01.681Z,305
2017-12-05T11:02:02.197Z,315
2017-12-05T11:03:02.458Z,340
2017-12-05T11:04:02.019Z,320
2017-12-05T11:05:01.981Z,305
2017-12-05T11:06:02.253Z,295
2017-12-05T11:07:02.522Z,280
2017-12-05T11:08:02.291Z,270
2017-12-05T11:09:02.139Z,275
2017-12-05T11:10:02.069Z,280
2017-12-05T11:11:02.100Z,275
2017-12-05T11:12:02.359Z,275
2017-12-05T11:13:02.619Z,275
2017-12-05T11:14:02.131Z,280
2017-12-05T11:15:02.760Z,280
2017-12-05T11:16:02.420Z,280
2017-12-05T11:17:02.682Z,280
2017-12-05T11:18:02.449Z,275
2017-12-05T11:19:02.212Z,275
2017-12-05T11:20:02.835Z,270
2017-12-05T11:21:02.502Z,270
2017-12-05T11:22:02.769Z,270
2017-12-05T11:23:02.287Z,275
2017-12-05T11:24:02.548Z,275
2017-12-05T11:25:02.311Z,290
2017-12-05T11:26:02.580Z,310
2017-12-05T11:27:02.342Z,330
2017-12-05T11:28:02.871Z,335
2017-12-05T11:29:02.641Z,335
2017-12-05T11:30:02.448Z,320
2017-12-05T11:31:02.661Z,300
2017-12-05T11:32:02.675Z,275
2017-12-05T11:33:02.702Z,255
2017-12-05T11:34:02.719Z,235
2017-12-05T11:35:02.724Z,230
2017-12-05T11:36:02.739Z,225
2017-12-05T11:37:02.513Z,225
2017-12-05T11:38:02.521Z,230
2017-12-05T11:39:02.794Z,240
2017-12-05T11:40:02.797Z,245
2017-12-05T11:41:02.564Z,250
2017-12-05T11:42:03.090Z,260
2017-12-05T11:43:02.850Z,270
2017-12-05T11:44:02.862Z,265
2017-12-05T11:45:02.947Z,260
2017-12-05T11:46:03.151Z,250
2017-12-05T11:47:02.918Z,245
2017-12-05T11:48:02.935Z,240
2017-12-05T11:49:02.450Z,245
2017-12-05T11:50:02.976Z,245
2017-12-05T11:51:02.998Z,250
2017-12-05T11:52:03.263Z,250
2017-12-05T11:53:03.017Z,250
2017-12-05T11:54:03.285Z,250
2017-12-05T11:55:03.057Z,255
2017-12-05T11:56:02.815Z,260
2017-12-05T11:57:03.088Z,270
2017-12-05T11:58:02.843Z,275
2017-12-05T11:59:03.111Z,290
2017-12-05T12:00:02.926Z,305
2017-12-05T12:01:03.142Z,315
2017-12-05T12:02:03.157Z,315
2017-12-05T12:03:02.920Z,320
2017-12-05T12:04:03.190Z,335
2017-12-05T12:05:03.475Z,345
2017-12-05T12:06:03.221Z,350
2017-12-05T12:07:03.500Z,380
2017-12-05T12:08:03.289Z,415
2017-12-05T12:09:03.523Z,595
2017-12-05T12:10:03.289Z,545
2017-12-05T12:11:03.568Z,650
2017-12-05T12:12:03.322Z,515
2017-12-05T12:13:03.097Z,465
2017-12-05T12:14:03.098Z,425
2017-12-05T12:15:03.421Z,410
2017-12-05T12:16:03.387Z,410
2017-12-05T12:17:03.665Z,440
2017-12-05T12:18:03.166Z,400
2017-12-05T12:19:03.192Z,385
2017-12-05T12:20:03.704Z,350
2017-12-05T12:21:03.531Z,340
2017-12-05T12:22:03.370Z,330
2017-12-05T12:23:03.253Z,325
2017-12-05T12:24:03.020Z,320
2017-12-05T12:25:03.034Z,305
2017-12-05T12:26:03.558Z,280
2017-12-05T12:27:03.583Z,270
2017-12-05T12:28:03.335Z,265
2017-12-05T12:29:03.355Z,270
2017-12-05T12:30:03.828Z,275
2017-12-05T12:31:03.640Z,290
2017-12-05T12:32:03.917Z,295
2017-12-05T12:33:03.932Z,310
2017-12-05T12:34:03.698Z,330
2017-12-05T12:35:03.531Z,345
2017-12-05T12:36:03.729Z,355
2017-12-05T12:37:04.008Z,370
2017-12-05T12:38:03.760Z,380
2017-12-05T12:39:03.783Z,385
2017-12-05T12:40:03.540Z,400
2017-12-05T12:41:04.067Z,430
2017-12-05T12:42:03.574Z,465
2017-12-05T12:43:04.099Z,435
2017-12-05T12:44:04.141Z,435
2017-12-05T12:45:04.186Z,440
2017-12-05T12:46:04.146Z,445
2017-12-05T12:47:04.186Z,400
2017-12-05T12:48:04.189Z,380
2017-12-05T12:49:03.950Z,370
2017-12-05T12:50:04.222Z,370
2017-12-05T12:51:03.990Z,365
2017-12-05T12:52:03.745Z,360
2017-12-05T12:53:04.271Z,350
2017-12-05T12:54:04.047Z,335
2017-12-05T12:55:04.453Z,330
2017-12-05T12:56:04.063Z,320
2017-12-05T12:57:04.088Z,320
2017-12-05T12:58:04.346Z,315
2017-12-05T12:59:03.914Z,315
2017-12-05T13:00:04.178Z,315
2017-12-05T13:01:04.148Z,315
2017-12-05T13:02:04.179Z,315
2017-12-05T13:03:03.930Z,310
2017-12-05T13:04:04.213Z,305
2017-12-05T13:05:03.981Z,310
2017-12-05T13:06:04.234Z,360
2017-12-05T13:07:04.255Z,390
2017-12-05T13:08:03.760Z,330
2017-12-05T13:09:04.037Z,315
2017-12-05T13:10:03.796Z,295
2017-12-05T13:11:03.836Z,270
2017-12-05T13:12:04.592Z,245
2017-12-05T13:13:04.410Z,225
2017-12-05T13:14:04.358Z,210
2017-12-05T13:15:04.393Z,205
2017-12-05T13:16:04.388Z,195
2017-12-05T13:17:04.662Z,180
2017-12-05T13:18:04.483Z,170
2017-12-05T13:19:04.756Z,165
2017-12-05T13:20:04.469Z,160
2017-12-05T13:21:04.492Z,155
2017-12-05T13:22:04.755Z,150
2017-12-05T13:23:04.346Z,140
2017-12-05T13:24:04.838Z,135
2017-12-05T13:25:04.565Z,125
2017-12-05T13:26:04.061Z,120
2017-12-05T13:27:04.838Z,110
2017-12-05T13:28:04.098Z,105
2017-12-05T13:29:04.616Z,100
2017-12-05T13:30:04.379Z,95
2017-12-05T13:31:04.652Z,90
2017-12-05T13:32:04.919Z,90
2017-12-05T13:33:04.194Z,85
2017-12-05T13:34:04.744Z,85
2017-12-05T13:35:04.971Z,80
2017-12-05T13:36:04.731Z,80
2017-12-05T13:37:04.745Z,75
2017-12-05T13:38:04.521Z,75
2017-12-05T13:39:05.030Z,75
2017-12-05T13:40:04.795Z,75
2017-12-05T13:41:05.074Z,75
2017-12-05T13:42:04.824Z,75
2017-12-05T13:43:04.849Z,75
2017-12-05T13:44:05.166Z,75
2017-12-05T13:45:04.877Z,75
2017-12-05T13:46:04.634Z,75
2017-12-05T13:47:04.901Z,75
2017-12-05T13:48:04.662Z,75
2017-12-05T13:49:04.985Z,75
2017-12-05T13:50:04.957Z,80
2017-12-05T13:51:04.457Z,80
2017-12-05T13:52:04.728Z,80
2017-12-05T13:53:04.593Z,80
2017-12-05T13:54:04.834Z,75
2017-12-05T13:55:04.778Z,75
2017-12-05T13:56:05.301Z,75
2017-12-05T13:57:04.806Z,70
2017-12-05T13:58:05.073Z,70
2017-12-05T13:59:05.344Z,70
2017-12-05T14:00:05.102Z,65
2017-12-05T14:01:05.124Z,60
2017-12-05T14:02:05.138Z,60
2017-12-05T14:03:05.473Z,60
2017-12-05T14:04:04.710Z,55
2017-12-05T14:05:05.249Z,55
2017-12-05T14:06:05.443Z,50
2017-12-05T14:07:04.954Z,50
2017-12-05T14:08:05.230Z,50
2017-12-05T14:09:05.242Z,50
2017-12-05T14:10:05.007Z,45
2017-12-05T14:11:05.535Z,45
2017-12-05T14:12:05.288Z,45
2017-12-05T14:13:05.382Z,45
2017-12-05T14:14:05.584Z,45
2017-12-05T14:15:05.591Z,45
2017-12-05T14:16:05.348Z,50
2017-12-05T14:17:05.364Z,50
2017-12-05T14:18:05.642Z,55
2017-12-05T14:19:05.658Z,50
2017-12-05T14:20:05.462Z,50
2017-12-05T14:21:04.918Z,50